sensor_id;sensor_type;location;lat;lon;timestamp;P1;durP1;ratioP1;P2;durP2;ratioP2
12412;SDS011;13877;18.896;-99.222;2023-10-19T00:00:57;13.35;;;6.32;;
12412;SDS011;13877;18.896;-99.222;2023-10-19T00:03:25;13.32;;;5.90;;
12412;SDS011;13877;18.896;-99.222;2023-10-19T00:05:55;14.60;;;7.20;;
12412;SDS011;13877;18.896;-99.222;2023-10-19T00:08:24;28.15;;;8.40;;
12412;SDS011;13877;18.896;-99.222;2023-10-19T00:10:55;24.35;;;8.50;;
12412;SDS011;13877;18.896;-99.222;2023-10-19T00:13:31;16.58;;;5.35;;
12412;SDS011;13877;18.896;-99.222;2023-10-19T00:15:59;15.75;;;5.82;;
12412;SDS011;13877;18.896;-99.222;2023-10-19T00:18:27;21.02;;;6.38;;
12412;SDS011;13877;18.896;-99.222;2023-10-19T00:20:58;12.88;;;7.00;;
12412;SDS011;13877;18.896;-99.222;2023-10-19T00:23:31;12.75;;;6.43;;
12412;SDS011;13877;18.896;-99.222;2023-10-19T00:25:59;14.90;;;7.57;;
12412;SDS011;13877;18.896;-99.222;2023-10-19T00:28:46;22.77;;;7.25;;
12412;SDS011;13877;18.896;-99.222;2023-10-19T00:31:19;16.95;;;6.97;;
12412;SDS011;13877;18.896;-99.222;2023-10-19T00:33:46;13.02;;;7.03;;
12412;SDS011;13877;18.896;-99.222;2023-10-19T00:36:17;16.35;;;8.02;;
12412;SDS011;13877;18.896;-99.222;2023-10-19T00:38:48;14.95;;;7.32;;
12412;SDS011;13877;18.896;-99.222;2023-10-19T00:41:18;20.70;;;7.82;;
12412;SDS011;13877;18.896;-99.222;2023-10-19T00:43:48;25.38;;;7.38;;
12412;SDS011;13877;18.896;-99.222;2023-10-19T00:46:16;16.88;;;7.03;;
12412;SDS011;13877;18.896;-99.222;2023-10-19T00:51:22;19.05;;;6.88;;
12412;SDS011;13877;18.896;-99.222;2023-10-19T00:53:57;25.27;;;7.20;;
12412;SDS011;13877;18.896;-99.222;2023-10-19T00:56:34;20.02;;;7.75;;
12412;SDS011;13877;18.896;-99.222;2023-10-19T00:59:02;21.48;;;9.25;;
12412;SDS011;13877;18.896;-99.222;2023-10-19T01:01:45;29.48;;;8.70;;
12412;SDS011;13877;18.896;-99.222;2023-10-19T01:04:16;27.05;;;8.77;;
12412;SDS011;13877;18.896;-99.222;2023-10-19T01:06:49;25.40;;;8.73;;
12412;SDS011;13877;18.896;-99.222;2023-10-19T01:09:44;16.55;;;7.38;;
12412;SDS011;13877;18.896;-99.222;2023-10-19T01:12:12;22.33;;;7.95;;
12412;SDS011;13877;18.896;-99.222;2023-10-19T01:15:05;23.65;;;8.60;;
12412;SDS011;13877;18.896;-99.222;2023-10-19T01:17:39;16.77;;;7.47;;
12412;SDS011;13877;18.896;-99.222;2023-10-19T01:20:14;24.50;;;8.55;;
12412;SDS011;13877;18.896;-99.222;2023-10-19T01:22:58;12.90;;;7.05;;
12412;SDS011;13877;18.896;-99.222;2023-10-19T01:28:16;15.63;;;6.15;;
12412;SDS011;13877;18.896;-99.222;2023-10-19T01:30:44;18.23;;;6.35;;
12412;SDS011;13877;18.896;-99.222;2023-10-19T01:33:17;16.60;;;6.72;;
12412;SDS011;13877;18.896;-99.222;2023-10-19T01:35:45;16.42;;;6.70;;
12412;SDS011;13877;18.896;-99.222;2023-10-19T01:38:31;15.35;;;6.93;;
12412;SDS011;13877;18.896;-99.222;2023-10-19T01:40:59;18.23;;;6.63;;
12412;SDS011;13877;18.896;-99.222;2023-10-19T01:43:28;13.30;;;6.15;;
12412;SDS011;13877;18.896;-99.222;2023-10-19T01:45:58;16.40;;;7.38;;
12412;SDS011;13877;18.896;-99.222;2023-10-19T01:48:41;14.60;;;6.85;;
12412;SDS011;13877;18.896;-99.222;2023-10-19T01:51:12;19.42;;;6.90;;
12412;SDS011;13877;18.896;-99.222;2023-10-19T01:53:40;19.13;;;7.45;;
12412;SDS011;13877;18.896;-99.222;2023-10-19T01:56:12;14.98;;;7.53;;
12412;SDS011;13877;18.896;-99.222;2023-10-19T01:58:41;14.52;;;6.93;;
12412;SDS011;13877;18.896;-99.222;2023-10-19T02:01:13;15.30;;;6.75;;
12412;SDS011;13877;18.896;-99.222;2023-10-19T02:03:44;16.00;;;6.50;;
12412;SDS011;13877;18.896;-99.222;2023-10-19T02:06:13;16.55;;;6.68;;
12412;SDS011;13877;18.896;-99.222;2023-10-19T02:08:46;20.60;;;7.07;;
12412;SDS011;13877;18.896;-99.222;2023-10-19T02:11:20;23.30;;;7.72;;
12412;SDS011;13877;18.896;-99.222;2023-10-19T02:13:55;19.13;;;8.57;;
12412;SDS011;13877;18.896;-99.222;2023-10-19T02:16:30;24.90;;;9.48;;
12412;SDS011;13877;18.896;-99.222;2023-10-19T02:18:58;27.67;;;8.65;;
12412;SDS011;13877;18.896;-99.222;2023-10-19T02:21:27;32.03;;;9.88;;
12412;SDS011;13877;18.896;-99.222;2023-10-19T02:23:56;25.00;;;9.68;;
12412;SDS011;13877;18.896;-99.222;2023-10-19T02:26:24;26.65;;;9.77;;
12412;SDS011;13877;18.896;-99.222;2023-10-19T02:28:56;32.08;;;10.02;;
12412;SDS011;13877;18.896;-99.222;2023-10-19T02:31:24;23.10;;;8.77;;
12412;SDS011;13877;18.896;-99.222;2023-10-19T02:33:53;24.95;;;8.60;;
12412;SDS011;13877;18.896;-99.222;2023-10-19T02:36:27;20.50;;;8.45;;
12412;SDS011;13877;18.896;-99.222;2023-10-19T02:38:59;20.85;;;8.00;;
12412;SDS011;13877;18.896;-99.222;2023-10-19T02:44:09;20.02;;;9.02;;
12412;SDS011;13877;18.896;-99.222;2023-10-19T02:46:51;20.70;;;7.93;;
12412;SDS011;13877;18.896;-99.222;2023-10-19T02:49:24;15.02;;;7.00;;
12412;SDS011;13877;18.896;-99.222;2023-10-19T02:51:53;13.93;;;6.32;;
12412;SDS011;13877;18.896;-99.222;2023-10-19T02:54:22;12.40;;;6.03;;
12412;SDS011;13877;18.896;-99.222;2023-10-19T02:56:51;18.55;;;5.97;;
12412;SDS011;13877;18.896;-99.222;2023-10-19T02:59:23;12.63;;;5.80;;
12412;SDS011;13877;18.896;-99.222;2023-10-19T03:01:52;14.00;;;5.30;;
12412;SDS011;13877;18.896;-99.222;2023-10-19T03:04:28;16.98;;;5.70;;
12412;SDS011;13877;18.896;-99.222;2023-10-19T03:06:55;16.85;;;6.18;;
12412;SDS011;13877;18.896;-99.222;2023-10-19T03:09:23;11.90;;;5.65;;
12412;SDS011;13877;18.896;-99.222;2023-10-19T03:11:53;23.58;;;6.20;;
12412;SDS011;13877;18.896;-99.222;2023-10-19T03:14:33;13.82;;;5.80;;
12412;SDS011;13877;18.896;-99.222;2023-10-19T03:17:01;17.63;;;5.67;;
12412;SDS011;13877;18.896;-99.222;2023-10-19T03:19:29;9.07;;;4.85;;
12412;SDS011;13877;18.896;-99.222;2023-10-19T03:21:57;13.65;;;5.65;;
12412;SDS011;13877;18.896;-99.222;2023-10-19T03:24:26;11.32;;;4.78;;
12412;SDS011;13877;18.896;-99.222;2023-10-19T03:27:10;21.23;;;5.13;;
12412;SDS011;13877;18.896;-99.222;2023-10-19T03:29:44;9.48;;;4.43;;
12412;SDS011;13877;18.896;-99.222;2023-10-19T03:32:12;14.27;;;5.63;;
12412;SDS011;13877;18.896;-99.222;2023-10-19T03:34:42;11.80;;;5.15;;
12412;SDS011;13877;18.896;-99.222;2023-10-19T03:37:14;14.25;;;4.97;;
12412;SDS011;13877;18.896;-99.222;2023-10-19T03:39:42;15.00;;;4.90;;
12412;SDS011;13877;18.896;-99.222;2023-10-19T03:42:12;9.63;;;4.40;;
12412;SDS011;13877;18.896;-99.222;2023-10-19T03:44:42;11.68;;;4.22;;
12412;SDS011;13877;18.896;-99.222;2023-10-19T03:47:10;16.80;;;4.55;;
12412;SDS011;13877;18.896;-99.222;2023-10-19T03:49:38;24.38;;;4.80;;
12412;SDS011;13877;18.896;-99.222;2023-10-19T03:52:06;8.38;;;4.15;;
12412;SDS011;13877;18.896;-99.222;2023-10-19T03:54:34;11.68;;;4.13;;
12412;SDS011;13877;18.896;-99.222;2023-10-19T03:57:08;15.75;;;4.03;;
12412;SDS011;13877;18.896;-99.222;2023-10-19T03:59:47;9.93;;;4.35;;
12412;SDS011;13877;18.896;-99.222;2023-10-19T04:02:27;31.20;;;5.07;;
12412;SDS011;13877;18.896;-99.222;2023-10-19T04:05:01;9.73;;;4.03;;
12412;SDS011;13877;18.896;-99.222;2023-10-19T04:07:29;10.82;;;3.70;;
12412;SDS011;13877;18.896;-99.222;2023-10-19T04:09:59;13.52;;;3.88;;
12412;SDS011;13877;18.896;-99.222;2023-10-19T04:12:32;9.93;;;3.63;;
12412;SDS011;13877;18.896;-99.222;2023-10-19T04:15:04;13.48;;;4.10;;
12412;SDS011;13877;18.896;-99.222;2023-10-19T04:20:19;8.77;;;3.75;;
12412;SDS011;13877;18.896;-99.222;2023-10-19T04:23:21;14.38;;;4.10;;
12412;SDS011;13877;18.896;-99.222;2023-10-19T04:26:01;13.52;;;4.30;;
12412;SDS011;13877;18.896;-99.222;2023-10-19T04:28:51;11.85;;;3.97;;
12412;SDS011;13877;18.896;-99.222;2023-10-19T04:31:22;9.85;;;3.88;;
12412;SDS011;13877;18.896;-99.222;2023-10-19T04:33:50;8.27;;;3.80;;
12412;SDS011;13877;18.896;-99.222;2023-10-19T04:36:17;8.95;;;3.60;;
12412;SDS011;13877;18.896;-99.222;2023-10-19T04:38:47;7.20;;;3.65;;
12412;SDS011;13877;18.896;-99.222;2023-10-19T04:41:15;8.02;;;3.65;;
12412;SDS011;13877;18.896;-99.222;2023-10-19T04:43:42;8.60;;;3.67;;
12412;SDS011;13877;18.896;-99.222;2023-10-19T04:46:15;10.07;;;3.60;;
12412;SDS011;13877;18.896;-99.222;2023-10-19T04:48:44;8.77;;;3.58;;
12412;SDS011;13877;18.896;-99.222;2023-10-19T04:51:14;12.27;;;3.83;;
12412;SDS011;13877;18.896;-99.222;2023-10-19T04:53:43;12.20;;;3.65;;
12412;SDS011;13877;18.896;-99.222;2023-10-19T04:56:10;8.65;;;3.63;;
12412;SDS011;13877;18.896;-99.222;2023-10-19T04:58:38;11.18;;;3.70;;
12412;SDS011;13877;18.896;-99.222;2023-10-19T05:01:05;9.15;;;3.08;;
12412;SDS011;13877;18.896;-99.222;2023-10-19T05:03:32;14.13;;;3.40;;
12412;SDS011;13877;18.896;-99.222;2023-10-19T05:06:01;12.32;;;3.72;;
12412;SDS011;13877;18.896;-99.222;2023-10-19T05:08:28;7.15;;;2.88;;
12412;SDS011;13877;18.896;-99.222;2023-10-19T05:10:59;6.40;;;3.00;;
12412;SDS011;13877;18.896;-99.222;2023-10-19T05:13:26;8.48;;;3.00;;
12412;SDS011;13877;18.896;-99.222;2023-10-19T05:15:54;6.40;;;3.10;;
12412;SDS011;13877;18.896;-99.222;2023-10-19T05:18:22;10.38;;;2.78;;
12412;SDS011;13877;18.896;-99.222;2023-10-19T05:20:49;8.65;;;3.15;;
12412;SDS011;13877;18.896;-99.222;2023-10-19T05:23:25;11.15;;;3.50;;
12412;SDS011;13877;18.896;-99.222;2023-10-19T05:26:03;9.13;;;3.17;;
12412;SDS011;13877;18.896;-99.222;2023-10-19T05:28:32;7.00;;;3.63;;
12412;SDS011;13877;18.896;-99.222;2023-10-19T05:30:59;7.97;;;3.17;;
12412;SDS011;13877;18.896;-99.222;2023-10-19T05:33:27;12.45;;;3.40;;
12412;SDS011;13877;18.896;-99.222;2023-10-19T05:35:55;7.75;;;2.92;;
12412;SDS011;13877;18.896;-99.222;2023-10-19T05:38:22;9.27;;;3.47;;
12412;SDS011;13877;18.896;-99.222;2023-10-19T05:40:50;6.20;;;2.72;;
12412;SDS011;13877;18.896;-99.222;2023-10-19T05:43:18;8.20;;;2.97;;
12412;SDS011;13877;18.896;-99.222;2023-10-19T05:45:45;4.30;;;2.40;;
12412;SDS011;13877;18.896;-99.222;2023-10-19T05:48:16;6.28;;;2.88;;
12412;SDS011;13877;18.896;-99.222;2023-10-19T05:50:43;7.18;;;2.90;;
12412;SDS011;13877;18.896;-99.222;2023-10-19T05:53:10;10.93;;;3.15;;
12412;SDS011;13877;18.896;-99.222;2023-10-19T05:55:37;4.20;;;2.45;;
12412;SDS011;13877;18.896;-99.222;2023-10-19T05:58:06;7.57;;;2.88;;
12412;SDS011;13877;18.896;-99.222;2023-10-19T06:00:33;6.40;;;2.20;;
12412;SDS011;13877;18.896;-99.222;2023-10-19T06:03:00;8.73;;;2.60;;
12412;SDS011;13877;18.896;-99.222;2023-10-19T06:05:28;8.23;;;2.78;;
12412;SDS011;13877;18.896;-99.222;2023-10-19T06:07:56;9.88;;;2.63;;
12412;SDS011;13877;18.896;-99.222;2023-10-19T06:10:26;3.55;;;2.17;;
12412;SDS011;13877;18.896;-99.222;2023-10-19T06:12:55;4.25;;;2.38;;
12412;SDS011;13877;18.896;-99.222;2023-10-19T06:15:23;9.70;;;2.28;;
12412;SDS011;13877;18.896;-99.222;2023-10-19T06:17:51;9.30;;;3.28;;
12412;SDS011;13877;18.896;-99.222;2023-10-19T06:20:18;6.72;;;2.47;;
12412;SDS011;13877;18.896;-99.222;2023-10-19T06:22:56;5.57;;;2.65;;
12412;SDS011;13877;18.896;-99.222;2023-10-19T06:25:34;9.60;;;2.80;;
12412;SDS011;13877;18.896;-99.222;2023-10-19T06:28:09;6.13;;;2.53;;
12412;SDS011;13877;18.896;-99.222;2023-10-19T06:30:50;6.90;;;2.10;;
12412;SDS011;13877;18.896;-99.222;2023-10-19T06:33:22;4.78;;;2.30;;
12412;SDS011;13877;18.896;-99.222;2023-10-19T06:35:50;11.50;;;2.60;;
12412;SDS011;13877;18.896;-99.222;2023-10-19T06:38:20;5.78;;;2.30;;
12412;SDS011;13877;18.896;-99.222;2023-10-19T06:40:48;8.73;;;2.95;;
12412;SDS011;13877;18.896;-99.222;2023-10-19T06:43:16;6.38;;;2.60;;
12412;SDS011;13877;18.896;-99.222;2023-10-19T06:45:49;4.75;;;2.40;;
12412;SDS011;13877;18.896;-99.222;2023-10-19T06:48:16;8.82;;;2.60;;
12412;SDS011;13877;18.896;-99.222;2023-10-19T06:50:44;7.05;;;2.47;;
12412;SDS011;13877;18.896;-99.222;2023-10-19T06:53:11;9.40;;;2.55;;
12412;SDS011;13877;18.896;-99.222;2023-10-19T06:55:39;4.75;;;2.67;;
12412;SDS011;13877;18.896;-99.222;2023-10-19T06:58:06;8.75;;;2.70;;
12412;SDS011;13877;18.896;-99.222;2023-10-19T07:00:35;5.57;;;2.92;;
12412;SDS011;13877;18.896;-99.222;2023-10-19T07:03:10;8.20;;;3.83;;
12412;SDS011;13877;18.896;-99.222;2023-10-19T07:05:38;5.85;;;2.33;;
12412;SDS011;13877;18.896;-99.222;2023-10-19T07:08:05;8.75;;;3.03;;
12412;SDS011;13877;18.896;-99.222;2023-10-19T07:10:33;6.07;;;2.75;;
12412;SDS011;13877;18.896;-99.222;2023-10-19T07:13:02;9.07;;;2.80;;
12412;SDS011;13877;18.896;-99.222;2023-10-19T07:15:30;5.85;;;2.97;;
12412;SDS011;13877;18.896;-99.222;2023-10-19T07:17:57;4.95;;;2.90;;
12412;SDS011;13877;18.896;-99.222;2023-10-19T07:20:24;11.43;;;3.05;;
12412;SDS011;13877;18.896;-99.222;2023-10-19T07:22:59;11.60;;;3.35;;
12412;SDS011;13877;18.896;-99.222;2023-10-19T07:25:36;10.20;;;3.20;;
12412;SDS011;13877;18.896;-99.222;2023-10-19T07:28:14;9.15;;;3.22;;
12412;SDS011;13877;18.896;-99.222;2023-10-19T07:30:42;8.32;;;3.05;;
12412;SDS011;13877;18.896;-99.222;2023-10-19T07:33:10;10.05;;;3.20;;
12412;SDS011;13877;18.896;-99.222;2023-10-19T07:35:46;15.38;;;3.38;;
12412;SDS011;13877;18.896;-99.222;2023-10-19T07:38:17;9.70;;;2.90;;
12412;SDS011;13877;18.896;-99.222;2023-10-19T07:40:47;9.18;;;3.05;;
12412;SDS011;13877;18.896;-99.222;2023-10-19T07:43:14;6.93;;;2.75;;
12412;SDS011;13877;18.896;-99.222;2023-10-19T07:45:42;5.72;;;3.00;;
12412;SDS011;13877;18.896;-99.222;2023-10-19T07:48:09;8.80;;;2.80;;
12412;SDS011;13877;18.896;-99.222;2023-10-19T07:50:37;8.45;;;3.17;;
12412;SDS011;13877;18.896;-99.222;2023-10-19T07:53:08;10.20;;;2.90;;
12412;SDS011;13877;18.896;-99.222;2023-10-19T07:55:36;6.43;;;2.88;;
12412;SDS011;13877;18.896;-99.222;2023-10-19T07:58:05;10.02;;;3.25;;
12412;SDS011;13877;18.896;-99.222;2023-10-19T08:00:36;5.40;;;3.05;;
12412;SDS011;13877;18.896;-99.222;2023-10-19T08:03:05;10.43;;;2.88;;
12412;SDS011;13877;18.896;-99.222;2023-10-19T08:05:32;6.60;;;2.97;;
12412;SDS011;13877;18.896;-99.222;2023-10-19T08:08:01;7.72;;;3.22;;
12412;SDS011;13877;18.896;-99.222;2023-10-19T08:10:29;9.82;;;3.20;;
12412;SDS011;13877;18.896;-99.222;2023-10-19T08:12:57;5.40;;;2.72;;
12412;SDS011;13877;18.896;-99.222;2023-10-19T08:15:25;12.75;;;3.50;;
12412;SDS011;13877;18.896;-99.222;2023-10-19T08:17:52;7.93;;;3.40;;
12412;SDS011;13877;18.896;-99.222;2023-10-19T08:20:22;8.13;;;2.55;;
12412;SDS011;13877;18.896;-99.222;2023-10-19T08:22:50;10.05;;;2.88;;
12412;SDS011;13877;18.896;-99.222;2023-10-19T08:25:19;9.07;;;3.00;;
12412;SDS011;13877;18.896;-99.222;2023-10-19T08:27:46;8.13;;;3.33;;
12412;SDS011;13877;18.896;-99.222;2023-10-19T08:30:18;19.88;;;3.88;;
12412;SDS011;13877;18.896;-99.222;2023-10-19T08:32:47;8.40;;;3.53;;
12412;SDS011;13877;18.896;-99.222;2023-10-19T08:35:15;7.50;;;2.72;;
12412;SDS011;13877;18.896;-99.222;2023-10-19T08:37:53;11.25;;;3.13;;
12412;SDS011;13877;18.896;-99.222;2023-10-19T08:40:24;11.57;;;3.70;;
12412;SDS011;13877;18.896;-99.222;2023-10-19T08:42:52;8.85;;;3.00;;
12412;SDS011;13877;18.896;-99.222;2023-10-19T08:45:21;11.35;;;3.90;;
12412;SDS011;13877;18.896;-99.222;2023-10-19T08:48:00;10.73;;;3.63;;
12412;SDS011;13877;18.896;-99.222;2023-10-19T08:50:28;10.57;;;3.72;;
12412;SDS011;13877;18.896;-99.222;2023-10-19T08:52:57;9.32;;;3.40;;
12412;SDS011;13877;18.896;-99.222;2023-10-19T08:55:26;16.02;;;3.08;;
12412;SDS011;13877;18.896;-99.222;2023-10-19T08:57:53;9.63;;;2.92;;
12412;SDS011;13877;18.896;-99.222;2023-10-19T09:00:21;16.67;;;4.43;;
12412;SDS011;13877;18.896;-99.222;2023-10-19T09:02:54;12.02;;;3.15;;
12412;SDS011;13877;18.896;-99.222;2023-10-19T09:05:25;13.18;;;3.15;;
12412;SDS011;13877;18.896;-99.222;2023-10-19T09:07:53;22.08;;;3.40;;
12412;SDS011;13877;18.896;-99.222;2023-10-19T09:10:24;12.32;;;3.05;;
12412;SDS011;13877;18.896;-99.222;2023-10-19T09:12:59;13.45;;;3.67;;
12412;SDS011;13877;18.896;-99.222;2023-10-19T09:15:34;11.80;;;3.67;;
12412;SDS011;13877;18.896;-99.222;2023-10-19T09:20:44;15.50;;;3.65;;
12412;SDS011;13877;18.896;-99.222;2023-10-19T09:23:28;9.65;;;3.42;;
12412;SDS011;13877;18.896;-99.222;2023-10-19T09:25:56;12.55;;;3.50;;
12412;SDS011;13877;18.896;-99.222;2023-10-19T09:28:28;8.30;;;3.88;;
12412;SDS011;13877;18.896;-99.222;2023-10-19T09:30:59;7.10;;;3.83;;
12412;SDS011;13877;18.896;-99.222;2023-10-19T09:33:27;14.05;;;3.60;;
12412;SDS011;13877;18.896;-99.222;2023-10-19T09:35:55;8.73;;;3.95;;
12412;SDS011;13877;18.896;-99.222;2023-10-19T09:38:27;8.00;;;3.47;;
12412;SDS011;13877;18.896;-99.222;2023-10-19T09:40:55;8.20;;;3.25;;
12412;SDS011;13877;18.896;-99.222;2023-10-19T09:46:10;9.27;;;3.65;;
12412;SDS011;13877;18.896;-99.222;2023-10-19T09:48:41;8.00;;;3.40;;
12412;SDS011;13877;18.896;-99.222;2023-10-19T09:51:14;7.13;;;3.25;;
12412;SDS011;13877;18.896;-99.222;2023-10-19T09:53:46;10.88;;;4.63;;
12412;SDS011;13877;18.896;-99.222;2023-10-19T09:56:21;14.35;;;3.83;;
12412;SDS011;13877;18.896;-99.222;2023-10-19T09:58:55;13.77;;;4.18;;
12412;SDS011;13877;18.896;-99.222;2023-10-19T10:01:28;15.57;;;4.38;;
12412;SDS011;13877;18.896;-99.222;2023-10-19T10:04:31;7.43;;;3.53;;
12412;SDS011;13877;18.896;-99.222;2023-10-19T10:07:01;8.82;;;3.80;;
12412;SDS011;13877;18.896;-99.222;2023-10-19T10:09:35;8.47;;;3.60;;
12412;SDS011;13877;18.896;-99.222;2023-10-19T10:12:20;8.70;;;4.00;;
12412;SDS011;13877;18.896;-99.222;2023-10-19T10:15:01;11.73;;;4.03;;
12412;SDS011;13877;18.896;-99.222;2023-10-19T10:17:37;9.48;;;4.13;;
12412;SDS011;13877;18.896;-99.222;2023-10-19T10:22:43;9.38;;;4.45;;
12412;SDS011;13877;18.896;-99.222;2023-10-19T10:25:26;11.38;;;3.78;;
12412;SDS011;13877;18.896;-99.222;2023-10-19T10:27:54;7.47;;;3.92;;
12412;SDS011;13877;18.896;-99.222;2023-10-19T10:30:22;12.70;;;3.80;;
12412;SDS011;13877;18.896;-99.222;2023-10-19T10:32:50;17.02;;;4.00;;
12412;SDS011;13877;18.896;-99.222;2023-10-19T10:38:09;13.68;;;4.22;;
12412;SDS011;13877;18.896;-99.222;2023-10-19T10:40:44;7.25;;;3.63;;
12412;SDS011;13877;18.896;-99.222;2023-10-19T10:43:16;9.38;;;3.67;;
12412;SDS011;13877;18.896;-99.222;2023-10-19T10:45:45;15.15;;;4.45;;
12412;SDS011;13877;18.896;-99.222;2023-10-19T10:48:16;8.90;;;4.00;;
12412;SDS011;13877;18.896;-99.222;2023-10-19T10:50:47;10.88;;;3.50;;
12412;SDS011;13877;18.896;-99.222;2023-10-19T10:53:15;7.45;;;3.53;;
12412;SDS011;13877;18.896;-99.222;2023-10-19T10:55:43;10.13;;;3.78;;
12412;SDS011;13877;18.896;-99.222;2023-10-19T10:58:19;10.00;;;4.10;;
12412;SDS011;13877;18.896;-99.222;2023-10-19T11:00:47;13.35;;;3.80;;
12412;SDS011;13877;18.896;-99.222;2023-10-19T11:03:17;13.70;;;4.25;;
12412;SDS011;13877;18.896;-99.222;2023-10-19T11:05:44;10.00;;;4.05;;
12412;SDS011;13877;18.896;-99.222;2023-10-19T11:08:13;9.18;;;4.25;;
12412;SDS011;13877;18.896;-99.222;2023-10-19T11:10:47;7.28;;;3.85;;
12412;SDS011;13877;18.896;-99.222;2023-10-19T11:13:15;11.00;;;4.50;;
12412;SDS011;13877;18.896;-99.222;2023-10-19T11:15:50;19.50;;;5.45;;
12412;SDS011;13877;18.896;-99.222;2023-10-19T11:18:29;12.10;;;5.40;;
12412;SDS011;13877;18.896;-99.222;2023-10-19T11:20:58;16.92;;;4.90;;
12412;SDS011;13877;18.896;-99.222;2023-10-19T11:26:09;12.98;;;4.70;;
12412;SDS011;13877;18.896;-99.222;2023-10-19T11:28:37;11.30;;;4.75;;
12412;SDS011;13877;18.896;-99.222;2023-10-19T11:31:20;18.25;;;4.72;;
12412;SDS011;13877;18.896;-99.222;2023-10-19T11:33:51;9.90;;;4.47;;
12412;SDS011;13877;18.896;-99.222;2023-10-19T11:38:49;13.77;;;5.20;;
12412;SDS011;13877;18.896;-99.222;2023-10-19T11:41:20;10.32;;;4.25;;
12412;SDS011;13877;18.896;-99.222;2023-10-19T11:43:48;9.68;;;4.78;;
12412;SDS011;13877;18.896;-99.222;2023-10-19T11:46:16;9.98;;;4.57;;
12412;SDS011;13877;18.896;-99.222;2023-10-19T11:48:44;12.40;;;4.57;;
12412;SDS011;13877;18.896;-99.222;2023-10-19T11:51:11;8.60;;;4.50;;
12412;SDS011;13877;18.896;-99.222;2023-10-19T11:53:40;14.77;;;4.90;;
12412;SDS011;13877;18.896;-99.222;2023-10-19T11:56:09;12.90;;;4.78;;
12412;SDS011;13877;18.896;-99.222;2023-10-19T11:58:42;16.92;;;5.70;;
12412;SDS011;13877;18.896;-99.222;2023-10-19T12:01:12;11.93;;;4.90;;
12412;SDS011;13877;18.896;-99.222;2023-10-19T12:03:42;10.85;;;4.80;;
12412;SDS011;13877;18.896;-99.222;2023-10-19T12:06:12;14.73;;;4.78;;
12412;SDS011;13877;18.896;-99.222;2023-10-19T12:08:45;11.93;;;5.10;;
12412;SDS011;13877;18.896;-99.222;2023-10-19T12:11:12;13.57;;;5.40;;
12412;SDS011;13877;18.896;-99.222;2023-10-19T12:13:45;13.70;;;5.00;;
12412;SDS011;13877;18.896;-99.222;2023-10-19T12:16:12;9.95;;;5.15;;
12412;SDS011;13877;18.896;-99.222;2023-10-19T12:18:43;14.63;;;6.17;;
12412;SDS011;13877;18.896;-99.222;2023-10-19T12:21:12;15.60;;;5.30;;
12412;SDS011;13877;18.896;-99.222;2023-10-19T12:23:44;11.73;;;5.05;;
12412;SDS011;13877;18.896;-99.222;2023-10-19T12:26:21;11.52;;;5.60;;
12412;SDS011;13877;18.896;-99.222;2023-10-19T12:28:50;12.95;;;5.13;;
12412;SDS011;13877;18.896;-99.222;2023-10-19T12:31:19;14.77;;;5.30;;
12412;SDS011;13877;18.896;-99.222;2023-10-19T12:33:48;14.40;;;5.43;;
12412;SDS011;13877;18.896;-99.222;2023-10-19T12:36:15;10.65;;;5.80;;
12412;SDS011;13877;18.896;-99.222;2023-10-19T12:38:55;14.45;;;6.13;;
12412;SDS011;13877;18.896;-99.222;2023-10-19T12:41:23;11.90;;;5.45;;
12412;SDS011;13877;18.896;-99.222;2023-10-19T12:43:51;12.85;;;6.78;;
12412;SDS011;13877;18.896;-99.222;2023-10-19T12:46:21;33.15;;;17.15;;
12412;SDS011;13877;18.896;-99.222;2023-10-19T12:48:51;43.83;;;25.30;;
12412;SDS011;13877;18.896;-99.222;2023-10-19T12:51:18;45.75;;;29.55;;
12412;SDS011;13877;18.896;-99.222;2023-10-19T12:56:20;58.83;;;32.03;;
12412;SDS011;13877;18.896;-99.222;2023-10-19T12:58:54;48.35;;;26.17;;
12412;SDS011;13877;18.896;-99.222;2023-10-19T13:01:22;22.33;;;10.40;;
12412;SDS011;13877;18.896;-99.222;2023-10-19T13:03:50;22.67;;;5.80;;
12412;SDS011;13877;18.896;-99.222;2023-10-19T13:06:17;10.52;;;5.07;;
12412;SDS011;13877;18.896;-99.222;2023-10-19T13:08:45;19.75;;;5.88;;
12412;SDS011;13877;18.896;-99.222;2023-10-19T13:11:13;16.58;;;5.15;;
12412;SDS011;13877;18.896;-99.222;2023-10-19T13:13:40;22.05;;;6.05;;
12412;SDS011;13877;18.896;-99.222;2023-10-19T13:16:08;25.30;;;5.75;;
12412;SDS011;13877;18.896;-99.222;2023-10-19T13:18:35;22.83;;;5.10;;
12412;SDS011;13877;18.896;-99.222;2023-10-19T13:21:03;19.02;;;5.47;;
12412;SDS011;13877;18.896;-99.222;2023-10-19T13:23:37;11.35;;;5.07;;
12412;SDS011;13877;18.896;-99.222;2023-10-19T13:26:04;15.23;;;4.80;;
12412;SDS011;13877;18.896;-99.222;2023-10-19T13:28:41;15.30;;;5.45;;
12412;SDS011;13877;18.896;-99.222;2023-10-19T13:31:09;13.43;;;4.90;;
12412;SDS011;13877;18.896;-99.222;2023-10-19T13:33:37;15.02;;;4.90;;
12412;SDS011;13877;18.896;-99.222;2023-10-19T13:36:04;19.85;;;6.18;;
12412;SDS011;13877;18.896;-99.222;2023-10-19T13:38:32;12.57;;;4.80;;
12412;SDS011;13877;18.896;-99.222;2023-10-19T13:41:02;24.35;;;5.93;;
12412;SDS011;13877;18.896;-99.222;2023-10-19T13:43:35;15.13;;;4.97;;
12412;SDS011;13877;18.896;-99.222;2023-10-19T13:46:03;16.05;;;5.20;;
12412;SDS011;13877;18.896;-99.222;2023-10-19T13:48:31;21.83;;;5.70;;
12412;SDS011;13877;18.896;-99.222;2023-10-19T13:50:58;16.30;;;5.82;;
12412;SDS011;13877;18.896;-99.222;2023-10-19T13:53:39;25.67;;;5.57;;
12412;SDS011;13877;18.896;-99.222;2023-10-19T13:56:07;20.05;;;5.82;;
12412;SDS011;13877;18.896;-99.222;2023-10-19T13:58:35;16.60;;;4.95;;
12412;SDS011;13877;18.896;-99.222;2023-10-19T14:01:06;11.48;;;5.45;;
12412;SDS011;13877;18.896;-99.222;2023-10-19T14:03:35;17.63;;;5.93;;
12412;SDS011;13877;18.896;-99.222;2023-10-19T14:06:03;16.48;;;5.22;;
12412;SDS011;13877;18.896;-99.222;2023-10-19T14:08:31;19.70;;;5.82;;
12412;SDS011;13877;18.896;-99.222;2023-10-19T14:11:02;16.35;;;6.10;;
12412;SDS011;13877;18.896;-99.222;2023-10-19T14:13:30;18.23;;;5.28;;
12412;SDS011;13877;18.896;-99.222;2023-10-19T14:15:57;13.50;;;5.65;;
12412;SDS011;13877;18.896;-99.222;2023-10-19T14:18:25;19.52;;;7.63;;
12412;SDS011;13877;18.896;-99.222;2023-10-19T14:20:52;27.75;;;7.63;;
12412;SDS011;13877;18.896;-99.222;2023-10-19T14:23:20;25.52;;;9.00;;
12412;SDS011;13877;18.896;-99.222;2023-10-19T14:25:47;34.10;;;9.20;;
12412;SDS011;13877;18.896;-99.222;2023-10-19T14:28:15;27.10;;;9.60;;
12412;SDS011;13877;18.896;-99.222;2023-10-19T14:30:43;29.20;;;7.53;;
12412;SDS011;13877;18.896;-99.222;2023-10-19T14:33:11;25.48;;;7.82;;
12412;SDS011;13877;18.896;-99.222;2023-10-19T14:35:38;20.35;;;6.80;;
12412;SDS011;13877;18.896;-99.222;2023-10-19T14:38:07;18.35;;;7.40;;
12412;SDS011;13877;18.896;-99.222;2023-10-19T14:40:37;25.17;;;7.68;;
12412;SDS011;13877;18.896;-99.222;2023-10-19T14:43:04;24.75;;;8.10;;
12412;SDS011;13877;18.896;-99.222;2023-10-19T14:45:32;21.63;;;7.60;;
12412;SDS011;13877;18.896;-99.222;2023-10-19T14:47:59;22.02;;;7.28;;
12412;SDS011;13877;18.896;-99.222;2023-10-19T14:50:30;30.23;;;7.43;;
12412;SDS011;13877;18.896;-99.222;2023-10-19T14:52:58;32.50;;;7.47;;
12412;SDS011;13877;18.896;-99.222;2023-10-19T14:55:25;25.27;;;7.50;;
12412;SDS011;13877;18.896;-99.222;2023-10-19T14:57:53;16.15;;;6.53;;
12412;SDS011;13877;18.896;-99.222;2023-10-19T15:00:24;22.30;;;7.10;;
12412;SDS011;13877;18.896;-99.222;2023-10-19T15:03:08;29.75;;;8.60;;